sensor_id;sensor_type;location;lat;lon;timestamp;temperature;humidity
3055;DHT22;1537;52.018;8.542;2024-02-23T00:00:18;8.70;99.90
3055;DHT22;1537;52.018;8.542;2024-02-23T00:03:43;8.70;99.90
3055;DHT22;1537;52.018;8.542;2024-02-23T00:07:07;8.60;99.90
3055;DHT22;1537;52.018;8.542;2024-02-23T00:10:31;8.50;99.90
3055;DHT22;1537;52.018;8.542;2024-02-23T00:13:54;8.50;99.90
3055;DHT22;1537;52.018;8.542;2024-02-23T00:17:18;8.50;99.90
3055;DHT22;1537;52.018;8.542;2024-02-23T00:20:43;8.40;99.90
3055;DHT22;1537;52.018;8.542;2024-02-23T00:24:08;8.30;99.90
3055;DHT22;1537;52.018;8.542;2024-02-23T00:27:31;8.20;99.90
3055;DHT22;1537;52.018;8.542;2024-02-23T00:30:55;8.00;99.90
3055;DHT22;1537;52.018;8.542;2024-02-23T00:34:18;7.80;99.90
3055;DHT22;1537;52.018;8.542;2024-02-23T00:37:43;7.80;99.90
3055;DHT22;1537;52.018;8.542;2024-02-23T00:41:07;7.60;99.90
3055;DHT22;1537;52.018;8.542;2024-02-23T00:44:31;7.60;99.90
3055;DHT22;1537;52.018;8.542;2024-02-23T00:47:55;7.50;99.90
3055;DHT22;1537;52.018;8.542;2024-02-23T00:51:20;7.30;99.90
3055;DHT22;1537;52.018;8.542;2024-02-23T00:54:46;7.20;99.90
3055;DHT22;1537;52.018;8.542;2024-02-23T00:58:10;7.10;99.90
3055;DHT22;1537;52.018;8.542;2024-02-23T01:01:34;7.10;99.90
3055;DHT22;1537;52.018;8.542;2024-02-23T01:04:58;6.90;99.90
3055;DHT22;1537;52.018;8.542;2024-02-23T01:08:22;6.80;99.90
3055;DHT22;1537;52.018;8.542;2024-02-23T01:11:47;6.80;99.90
3055;DHT22;1537;52.018;8.542;2024-02-23T01:15:11;6.60;99.90
3055;DHT22;1537;52.018;8.542;2024-02-23T01:18:34;6.60;99.90
3055;DHT22;1537;52.018;8.542;2024-02-23T01:21:58;6.30;99.90
3055;DHT22;1537;52.018;8.542;2024-02-23T01:25:23;6.20;99.90
3055;DHT22;1537;52.018;8.542;2024-02-23T01:28:48;6.10;99.90
3055;DHT22;1537;52.018;8.542;2024-02-23T01:32:11;6.00;99.90
3055;DHT22;1537;52.018;8.542;2024-02-23T01:35:35;6.00;99.90
3055;DHT22;1537;52.018;8.542;2024-02-23T01:38:59;6.00;99.90
3055;DHT22;1537;52.018;8.542;2024-02-23T01:42:22;5.90;99.90
3055;DHT22;1537;52.018;8.542;2024-02-23T01:45:49;5.80;99.90
3055;DHT22;1537;52.018;8.542;2024-02-23T01:49:13;5.80;99.90
3055;DHT22;1537;52.018;8.542;2024-02-23T01:52:37;5.80;99.90
3055;DHT22;1537;52.018;8.542;2024-02-23T01:56:02;5.80;99.90
3055;DHT22;1537;52.018;8.542;2024-02-23T01:59:28;5.80;99.90
3055;DHT22;1537;52.018;8.542;2024-02-23T02:16:26;5.80;99.90
3055;DHT22;1537;52.018;8.542;2024-02-23T02:19:52;5.90;99.90
3055;DHT22;1537;52.018;8.542;2024-02-23T02:23:20;5.90;99.90
3055;DHT22;1537;52.018;8.542;2024-02-23T02:26:44;5.80;99.90
3055;DHT22;1537;52.018;8.542;2024-02-23T02:30:09;5.80;99.90
3055;DHT22;1537;52.018;8.542;2024-02-23T02:33:34;5.80;99.90
3055;DHT22;1537;52.018;8.542;2024-02-23T02:36:58;5.70;99.90
3055;DHT22;1537;52.018;8.542;2024-02-23T02:40:22;5.70;99.90
3055;DHT22;1537;52.018;8.542;2024-02-23T02:43:45;5.60;99.90
3055;DHT22;1537;52.018;8.542;2024-02-23T02:51:16;5.60;99.90
3055;DHT22;1537;52.018;8.542;2024-02-23T02:54:40;5.60;99.90
3055;DHT22;1537;52.018;8.542;2024-02-23T02:58:04;5.70;99.90
3055;DHT22;1537;52.018;8.542;2024-02-23T03:01:27;5.80;99.90
3055;DHT22;1537;52.018;8.542;2024-02-23T03:04:51;5.80;99.90
3055;DHT22;1537;52.018;8.542;2024-02-23T03:08:18;5.80;99.90
3055;DHT22;1537;52.018;8.542;2024-02-23T03:11:42;5.90;99.90
3055;DHT22;1537;52.018;8.542;2024-02-23T03:15:06;5.90;99.90
3055;DHT22;1537;52.018;8.542;2024-02-23T03:18:29;5.90;99.90
3055;DHT22;1537;52.018;8.542;2024-02-23T03:21:53;6.00;99.90
3055;DHT22;1537;52.018;8.542;2024-02-23T03:25:18;6.00;99.90
3055;DHT22;1537;52.018;8.542;2024-02-23T03:28:42;6.00;99.90
3055;DHT22;1537;52.018;8.542;2024-02-23T03:32:06;6.10;99.90
3055;DHT22;1537;52.018;8.542;2024-02-23T03:35:30;6.10;99.90
3055;DHT22;1537;52.018;8.542;2024-02-23T03:38:54;6.10;99.90
3055;DHT22;1537;52.018;8.542;2024-02-23T03:42:19;6.10;99.90
3055;DHT22;1537;52.018;8.542;2024-02-23T03:45:43;6.20;99.90
3055;DHT22;1537;52.018;8.542;2024-02-23T03:49:06;6.10;99.90
3055;DHT22;1537;52.018;8.542;2024-02-23T03:52:30;6.20;99.90
3055;DHT22;1537;52.018;8.542;2024-02-23T03:55:54;6.20;99.90
3055;DHT22;1537;52.018;8.542;2024-02-23T03:59:19;6.20;99.90
3055;DHT22;1537;52.018;8.542;2024-02-23T04:02:43;6.20;99.90
3055;DHT22;1537;52.018;8.542;2024-02-23T04:06:07;6.10;99.90
3055;DHT22;1537;52.018;8.542;2024-02-23T04:09:31;6.10;99.90
3055;DHT22;1537;52.018;8.542;2024-02-23T04:13:03;6.10;99.90
3055;DHT22;1537;52.018;8.542;2024-02-23T04:16:28;6.10;99.90
3055;DHT22;1537;52.018;8.542;2024-02-23T04:19:52;6.00;99.90
3055;DHT22;1537;52.018;8.542;2024-02-23T04:23:16;6.00;99.90
3055;DHT22;1537;52.018;8.542;2024-02-23T04:26:40;6.10;99.90
3055;DHT22;1537;52.018;8.542;2024-02-23T04:30:04;6.00;99.90
3055;DHT22;1537;52.018;8.542;2024-02-23T04:33:34;6.00;99.90
3055;DHT22;1537;52.018;8.542;2024-02-23T04:36:57;5.90;99.90
3055;DHT22;1537;52.018;8.542;2024-02-23T04:40:21;6.00;99.90
3055;DHT22;1537;52.018;8.542;2024-02-23T04:43:45;6.00;99.90
3055;DHT22;1537;52.018;8.542;2024-02-23T04:47:09;6.10;99.90
3055;DHT22;1537;52.018;8.542;2024-02-23T04:50:34;6.00;99.90
3055;DHT22;1537;52.018;8.542;2024-02-23T04:53:57;6.10;99.90
3055;DHT22;1537;52.018;8.542;2024-02-23T04:57:21;6.10;99.90
3055;DHT22;1537;52.018;8.542;2024-02-23T05:00:44;6.10;99.90
3055;DHT22;1537;52.018;8.542;2024-02-23T05:04:08;6.10;99.90
3055;DHT22;1537;52.018;8.542;2024-02-23T05:07:34;6.10;99.90
3055;DHT22;1537;52.018;8.542;2024-02-23T05:10:57;6.10;99.90
3055;DHT22;1537;52.018;8.542;2024-02-23T05:14:21;6.10;99.90
3055;DHT22;1537;52.018;8.542;2024-02-23T05:17:45;6.10;99.90
3055;DHT22;1537;52.018;8.542;2024-02-23T05:21:09;6.10;99.90
3055;DHT22;1537;52.018;8.542;2024-02-23T05:24:34;6.10;99.90
3055;DHT22;1537;52.018;8.542;2024-02-23T05:27:57;6.10;99.90
3055;DHT22;1537;52.018;8.542;2024-02-23T05:31:44;6.10;99.90
3055;DHT22;1537;52.018;8.542;2024-02-23T05:35:09;6.10;99.90
3055;DHT22;1537;52.018;8.542;2024-02-23T05:38:35;6.20;99.90
3055;DHT22;1537;52.018;8.542;2024-02-23T05:42:00;6.20;99.90
3055;DHT22;1537;52.018;8.542;2024-02-23T05:45:23;6.10;99.90
3055;DHT22;1537;52.018;8.542;2024-02-23T05:48:47;6.10;99.90
3055;DHT22;1537;52.018;8.542;2024-02-23T05:52:11;6.10;99.90
3055;DHT22;1537;52.018;8.542;2024-02-23T05:55:34;6.10;99.90
3055;DHT22;1537;52.018;8.542;2024-02-23T05:58:59;6.10;99.90
3055;DHT22;1537;52.018;8.542;2024-02-23T06:02:24;6.00;99.90
3055;DHT22;1537;52.018;8.542;2024-02-23T06:05:48;6.00;99.90
3055;DHT22;1537;52.018;8.542;2024-02-23T06:09:11;6.00;99.90
3055;DHT22;1537;52.018;8.542;2024-02-23T06:12:35;6.00;99.90
3055;DHT22;1537;52.018;8.542;2024-02-23T06:16:00;6.00;99.90
3055;DHT22;1537;52.018;8.542;2024-02-23T06:19:24;6.00;99.90
3055;DHT22;1537;52.018;8.542;2024-02-23T06:22:48;6.00;99.90
3055;DHT22;1537;52.018;8.542;2024-02-23T06:26:11;6.00;99.90
3055;DHT22;1537;52.018;8.542;2024-02-23T06:29:35;6.10;99.90
3055;DHT22;1537;52.018;8.542;2024-02-23T06:33:00;6.00;99.90
3055;DHT22;1537;52.018;8.542;2024-02-23T06:36:24;6.00;99.90
3055;DHT22;1537;52.018;8.542;2024-02-23T06:39:48;6.00;99.90
3055;DHT22;1537;52.018;8.542;2024-02-23T06:43:16;6.00;99.90
3055;DHT22;1537;52.018;8.542;2024-02-23T06:46:44;6.00;99.90
3055;DHT22;1537;52.018;8.542;2024-02-23T06:50:10;6.00;99.90
3055;DHT22;1537;52.018;8.542;2024-02-23T06:53:33;5.90;99.90
3055;DHT22;1537;52.018;8.542;2024-02-23T06:56:57;5.90;99.90
3055;DHT22;1537;52.018;8.542;2024-02-23T07:00:21;5.80;99.90
3055;DHT22;1537;52.018;8.542;2024-02-23T07:03:45;5.70;99.90
3055;DHT22;1537;52.018;8.542;2024-02-23T07:07:12;5.80;99.90
3055;DHT22;1537;52.018;8.542;2024-02-23T07:10:36;5.70;99.90
3055;DHT22;1537;52.018;8.542;2024-02-23T07:14:00;5.70;99.90
3055;DHT22;1537;52.018;8.542;2024-02-23T07:17:23;5.70;99.90
3055;DHT22;1537;52.018;8.542;2024-02-23T07:20:47;5.70;99.90
3055;DHT22;1537;52.018;8.542;2024-02-23T07:24:12;5.70;99.90
3055;DHT22;1537;52.018;8.542;2024-02-23T07:27:36;5.70;99.90
3055;DHT22;1537;52.018;8.542;2024-02-23T07:31:00;5.80;99.90
3055;DHT22;1537;52.018;8.542;2024-02-23T07:34:23;5.90;99.90
3055;DHT22;1537;52.018;8.542;2024-02-23T07:37:47;5.90;99.90
3055;DHT22;1537;52.018;8.542;2024-02-23T07:41:12;6.10;99.90
3055;DHT22;1537;52.018;8.542;2024-02-23T07:44:36;6.90;99.90
3055;DHT22;1537;52.018;8.542;2024-02-23T07:48:01;8.10;99.90
3055;DHT22;1537;52.018;8.542;2024-02-23T07:51:25;9.00;99.90
3055;DHT22;1537;52.018;8.542;2024-02-23T07:54:49;9.70;99.90
3055;DHT22;1537;52.018;8.542;2024-02-23T07:58:15;9.90;99.90
3055;DHT22;1537;52.018;8.542;2024-02-23T08:01:39;10.00;99.90
3055;DHT22;1537;52.018;8.542;2024-02-23T08:05:04;10.30;99.90
3055;DHT22;1537;52.018;8.542;2024-02-23T08:08:28;10.60;99.90
3055;DHT22;1537;52.018;8.542;2024-02-23T08:11:55;10.80;99.90
3055;DHT22;1537;52.018;8.542;2024-02-23T08:15:20;10.80;99.90
3055;DHT22;1537;52.018;8.542;2024-02-23T08:18:44;10.80;99.90
3055;DHT22;1537;52.018;8.542;2024-02-23T08:22:08;10.90;99.90
3055;DHT22;1537;52.018;8.542;2024-02-23T08:25:36;10.60;99.90
3055;DHT22;1537;52.018;8.542;2024-02-23T08:29:00;11.20;99.90
3055;DHT22;1537;52.018;8.542;2024-02-23T08:32:26;10.80;99.90
3055;DHT22;1537;52.018;8.542;2024-02-23T08:35:50;10.30;99.90
3055;DHT22;1537;52.018;8.542;2024-02-23T08:39:14;10.20;99.90
3055;DHT22;1537;52.018;8.542;2024-02-23T08:42:38;9.00;99.90
3055;DHT22;1537;52.018;8.542;2024-02-23T08:46:04;8.60;99.90
3055;DHT22;1537;52.018;8.542;2024-02-23T08:49:33;8.60;99.90
3055;DHT22;1537;52.018;8.542;2024-02-23T08:52:59;8.80;99.90
3055;DHT22;1537;52.018;8.542;2024-02-23T08:56:22;8.10;99.90
3055;DHT22;1537;52.018;8.542;2024-02-23T08:59:47;8.10;99.90
3055;DHT22;1537;52.018;8.542;2024-02-23T09:03:11;8.80;99.90
3055;DHT22;1537;52.018;8.542;2024-02-23T09:06:36;9.20;99.90
3055;DHT22;1537;52.018;8.542;2024-02-23T09:10:02;8.90;99.90
3055;DHT22;1537;52.018;8.542;2024-02-23T09:13:27;8.50;99.90
3055;DHT22;1537;52.018;8.542;2024-02-23T09:16:53;8.30;99.90
3055;DHT22;1537;52.018;8.542;2024-02-23T09:20:18;7.90;99.90
3055;DHT22;1537;52.018;8.542;2024-02-23T09:23:43;7.80;99.90
3055;DHT22;1537;52.018;8.542;2024-02-23T09:27:08;7.70;99.90
3055;DHT22;1537;52.018;8.542;2024-02-23T09:30:32;7.60;99.90
3055;DHT22;1537;52.018;8.542;2024-02-23T09:33:56;7.60;99.90
3055;DHT22;1537;52.018;8.542;2024-02-23T09:37:20;7.50;99.90
3055;DHT22;1537;52.018;8.542;2024-02-23T09:40:46;7.60;99.90
3055;DHT22;1537;52.018;8.542;2024-02-23T09:44:10;7.50;99.90
3055;DHT22;1537;52.018;8.542;2024-02-23T09:47:36;7.70;99.90
3055;DHT22;1537;52.018;8.542;2024-02-23T09:51:01;7.80;99.90
3055;DHT22;1537;52.018;8.542;2024-02-23T09:54:25;7.90;99.90
3055;DHT22;1537;52.018;8.542;2024-02-23T09:57:52;7.70;99.90
3055;DHT22;1537;52.018;8.542;2024-02-23T10:01:25;7.60;99.90
3055;DHT22;1537;52.018;8.542;2024-02-23T10:04:51;7.70;99.90
3055;DHT22;1537;52.018;8.542;2024-02-23T10:08:20;7.60;99.90
3055;DHT22;1537;52.018;8.542;2024-02-23T10:11:44;7.60;99.90
3055;DHT22;1537;52.018;8.542;2024-02-23T10:15:12;7.60;99.90
3055;DHT22;1537;52.018;8.542;2024-02-23T10:18:38;7.60;99.90
3055;DHT22;1537;52.018;8.542;2024-02-23T10:22:02;7.50;99.90
3055;DHT22;1537;52.018;8.542;2024-02-23T10:25:26;7.50;99.90
3055;DHT22;1537;52.018;8.542;2024-02-23T10:28:50;7.50;99.90
3055;DHT22;1537;52.018;8.542;2024-02-23T10:32:21;7.50;99.90
3055;DHT22;1537;52.018;8.542;2024-02-23T10:35:48;7.50;99.90
3055;DHT22;1537;52.018;8.542;2024-02-23T10:39:18;7.60;99.90
3055;DHT22;1537;52.018;8.542;2024-02-23T10:42:44;7.60;99.90
3055;DHT22;1537;52.018;8.542;2024-02-23T10:46:14;7.80;99.90
3055;DHT22;1537;52.018;8.542;2024-02-23T10:49:41;7.80;99.90
3055;DHT22;1537;52.018;8.542;2024-02-23T10:53:07;7.70;99.90
3055;DHT22;1537;52.018;8.542;2024-02-23T10:56:32;7.70;99.90
3055;DHT22;1537;52.018;8.542;2024-02-23T10:59:57;7.90;99.90
3055;DHT22;1537;52.018;8.542;2024-02-23T11:03:21;7.90;99.90
3055;DHT22;1537;52.018;8.542;2024-02-23T11:06:54;8.00;99.90
3055;DHT22;1537;52.018;8.542;2024-02-23T11:10:22;8.10;99.90
3055;DHT22;1537;52.018;8.542;2024-02-23T11:13:56;8.40;99.90
3055;DHT22;1537;52.018;8.542;2024-02-23T11:17:21;8.30;99.90
3055;DHT22;1537;52.018;8.542;2024-02-23T11:20:54;8.40;99.90
3055;DHT22;1537;52.018;8.542;2024-02-23T11:24:25;8.40;99.90
3055;DHT22;1537;52.018;8.542;2024-02-23T11:27:51;8.30;99.90
3055;DHT22;1537;52.018;8.542;2024-02-23T11:31:20;8.60;99.90
3055;DHT22;1537;52.018;8.542;2024-02-23T11:34:54;8.80;99.90
3055;DHT22;1537;52.018;8.542;2024-02-23T11:38:20;8.80;99.90
3055;DHT22;1537;52.018;8.542;2024-02-23T11:41:48;8.70;99.90
3055;DHT22;1537;52.018;8.542;2024-02-23T11:45:12;8.70;99.90
3055;DHT22;1537;52.018;8.542;2024-02-23T11:48:36;8.60;99.90
3055;DHT22;1537;52.018;8.542;2024-02-23T11:52:00;8.60;99.90
3055;DHT22;1537;52.018;8.542;2024-02-23T11:55:26;8.50;99.90
3055;DHT22;1537;52.018;8.542;2024-02-23T11:58:53;8.60;99.90
3055;DHT22;1537;52.018;8.542;2024-02-23T12:02:21;8.70;99.90
3055;DHT22;1537;52.018;8.542;2024-02-23T12:05:47;8.60;99.90
3055;DHT22;1537;52.018;8.542;2024-02-23T12:09:14;8.70;99.90
3055;DHT22;1537;52.018;8.542;2024-02-23T12:12:38;8.80;99.90
3055;DHT22;1537;52.018;8.542;2024-02-23T12:16:03;8.80;99.90
3055;DHT22;1537;52.018;8.542;2024-02-23T12:19:29;8.60;99.90
3055;DHT22;1537;52.018;8.542;2024-02-23T12:22:56;8.70;99.90
3055;DHT22;1537;52.018;8.542;2024-02-23T12:26:20;8.80;99.90
3055;DHT22;1537;52.018;8.542;2024-02-23T12:29:51;8.70;99.90
3055;DHT22;1537;52.018;8.542;2024-02-23T12:33:17;8.90;99.90
3055;DHT22;1537;52.018;8.542;2024-02-23T12:36:42;8.90;99.90
3055;DHT22;1537;52.018;8.542;2024-02-23T12:40:07;8.90;99.90
3055;DHT22;1537;52.018;8.542;2024-02-23T12:43:31;9.10;99.90
3055;DHT22;1537;52.018;8.542;2024-02-23T12:47:02;9.00;99.90
3055;DHT22;1537;52.018;8.542;2024-02-23T12:50:30;9.00;99.90
3055;DHT22;1537;52.018;8.542;2024-02-23T12:53:53;8.80;99.90
3055;DHT22;1537;52.018;8.542;2024-02-23T12:57:19;8.90;99.90
3055;DHT22;1537;52.018;8.542;2024-02-23T13:00:43;9.10;99.90
3055;DHT22;1537;52.018;8.542;2024-02-23T13:04:07;9.20;99.90
3055;DHT22;1537;52.018;8.542;2024-02-23T13:07:34;9.10;99.90
3055;DHT22;1537;52.018;8.542;2024-02-23T13:11:02;9.20;99.90
3055;DHT22;1537;52.018;8.542;2024-02-23T13:14:26;9.00;99.90
3055;DHT22;1537;52.018;8.542;2024-02-23T13:17:50;9.10;99.90
3055;DHT22;1537;52.018;8.542;2024-02-23T13:21:14;8.90;99.90
3055;DHT22;1537;52.018;8.542;2024-02-23T13:24:40;8.90;99.90
3055;DHT22;1537;52.018;8.542;2024-02-23T13:28:04;9.00;99.90
3055;DHT22;1537;52.018;8.542;2024-02-23T13:31:28;9.00;99.90
3055;DHT22;1537;52.018;8.542;2024-02-23T13:34:52;9.10;99.90
3055;DHT22;1537;52.018;8.542;2024-02-23T13:38:19;9.10;99.90
3055;DHT22;1537;52.018;8.542;2024-02-23T13:41:45;9.10;99.90
3055;DHT22;1537;52.018;8.542;2024-02-23T13:45:12;9.20;99.90
3055;DHT22;1537;52.018;8.542;2024-02-23T13:48:36;9.20;99.90
3055;DHT22;1537;52.018;8.542;2024-02-23T13:52:00;9.20;99.90
3055;DHT22;1537;52.018;8.542;2024-02-23T13:55:24;9.00;99.90
3055;DHT22;1537;52.018;8.542;2024-02-23T13:58:51;9.10;99.90
3055;DHT22;1537;52.018;8.542;2024-02-23T14:02:15;9.10;99.90
3055;DHT22;1537;52.018;8.542;2024-02-23T14:05:43;9.00;99.90
3055;DHT22;1537;52.018;8.542;2024-02-23T14:09:08;8.90;99.90
3055;DHT22;1537;52.018;8.542;2024-02-23T14:12:31;8.80;99.90
3055;DHT22;1537;52.018;8.542;2024-02-23T14:15:57;8.70;99.90
3055;DHT22;1537;52.018;8.542;2024-02-23T14:19:20;8.40;99.90
3055;DHT22;1537;52.018;8.542;2024-02-23T14:22:44;8.20;99.90
3055;DHT22;1537;52.018;8.542;2024-02-23T14:26:08;8.00;99.90
3055;DHT22;1537;52.018;8.542;2024-02-23T14:29:32;8.00;99.90
3055;DHT22;1537;52.018;8.542;2024-02-23T14:32:58;8.10;99.90
3055;DHT22;1537;52.018;8.542;2024-02-23T14:36:22;8.20;99.90
3055;DHT22;1537;52.018;8.542;2024-02-23T14:39:46;8.20;99.90
3055;DHT22;1537;52.018;8.542;2024-02-23T14:43:13;8.30;99.90
3055;DHT22;1537;52.018;8.542;2024-02-23T14:46:36;8.40;99.90
3055;DHT22;1537;52.018;8.542;2024-02-23T14:50:07;8.40;99.90
3055;DHT22;1537;52.018;8.542;2024-02-23T14:53:32;8.30;99.90
3055;DHT22;1537;52.018;8.542;2024-02-23T14:56:57;8.30;99.90
3055;DHT22;1537;52.018;8.542;2024-02-23T15:00:21;8.30;99.90
3055;DHT22;1537;52.018;8.542;2024-02-23T15:03:44;8.30;99.90
3055;DHT22;1537;52.018;8.542;2024-02-23T15:07:11;8.20;99.90
3055;DHT22;1537;52.018;8.542;2024-02-23T15:10:35;8.20;99.90
3055;DHT22;1537;52.018;8.542;2024-02-23T15:13:58;8.20;99.90
3055;DHT22;1537;52.018;8.542;2024-02-23T15:17:23;8.20;99.90
3055;DHT22;1537;52.018;8.542;2024-02-23T15:20:47;8.20;99.90
3055;DHT22;1537;52.018;8.542;2024-02-23T15:24:16;8.20;99.90
3055;DHT22;1537;52.018;8.542;2024-02-23T15:27:41;8.20;99.90
3055;DHT22;1537;52.018;8.542;2024-02-23T15:31:05;8.20;99.90
3055;DHT22;1537;52.018;8.542;2024-02-23T15:34:29;8.00;99.90
3055;DHT22;1537;52.018;8.542;2024-02-23T15:37:56;7.90;99.90
3055;DHT22;1537;52.018;8.542;2024-02-23T15:41:23;7.90;99.90
3055;DHT22;1537;52.018;8.542;2024-02-23T15:44:50;7.90;99.90
3055;DHT22;1537;52.018;8.542;2024-02-23T15:48:15;7.90;99.90
3055;DHT22;1537;52.018;8.542;2024-02-23T15:51:39;8.00;99.90
3055;DHT22;1537;52.018;8.542;2024-02-23T15:55:16;7.90;99.90
3055;DHT22;1537;52.018;8.542;2024-02-23T15:58:42;7.70;99.90
3055;DHT22;1537;52.018;8.542;2024-02-23T16:02:11;7.80;99.90
3055;DHT22;1537;52.018;8.542;2024-02-23T16:05:36;7.70;99.90
3055;DHT22;1537;52.018;8.542;2024-02-23T16:09:00;7.80;99.90
3055;DHT22;1537;52.018;8.542;2024-02-23T16:12:25;7.90;99.90
3055;DHT22;1537;52.018;8.542;2024-02-23T16:15:51;7.90;99.90
3055;DHT22;1537;52.018;8.542;2024-02-23T16:19:15;7.90;99.90
3055;DHT22;1537;52.018;8.542;2024-02-23T16:22:39;8.00;99.90
3055;DHT22;1537;52.018;8.542;2024-02-23T16:26:05;8.10;99.90
3055;DHT22;1537;52.018;8.542;2024-02-23T16:29:29;8.10;99.90
3055;DHT22;1537;52.018;8.542;2024-02-23T16:32:55;8.10;99.90
3055;DHT22;1537;52.018;8.542;2024-02-23T16:36:20;8.10;99.90
3055;DHT22;1537;52.018;8.542;2024-02-23T16:39:44;8.10;99.90
3055;DHT22;1537;52.018;8.542;2024-02-23T16:43:08;8.10;99.90
3055;DHT22;1537;52.018;8.542;2024-02-23T16:46:32;8.10;99.90
3055;DHT22;1537;52.018;8.542;2024-02-23T16:49:57;8.10;99.90
3055;DHT22;1537;52.018;8.542;2024-02-23T16:53:21;8.20;99.90
3055;DHT22;1537;52.018;8.542;2024-02-23T16:56:45;8.10;99.90
3055;DHT22;1537;52.018;8.542;2024-02-23T17:00:09;8.10;99.90
3055;DHT22;1537;52.018;8.542;2024-02-23T17:03:34;8.00;99.90
3055;DHT22;1537;52.018;8.542;2024-02-23T17:07:00;7.90;99.90
3055;DHT22;1537;52.018;8.542;2024-02-23T17:10:25;7.90;99.90
3055;DHT22;1537;52.018;8.542;2024-02-23T17:13:50;7.90;99.90
3055;DHT22;1537;52.018;8.542;2024-02-23T17:17:14;7.80;99.90
3055;DHT22;1537;52.018;8.542;2024-02-23T17:20:38;7.90;99.90
3055;DHT22;1537;52.018;8.542;2024-02-23T17:24:03;7.80;99.90
3055;DHT22;1537;52.018;8.542;2024-02-23T17:27:29;7.80;99.90
3055;DHT22;1537;52.018;8.542;2024-02-23T17:30:53;7.80;99.90
3055;DHT22;1537;52.018;8.542;2024-02-23T17:34:20;7.80;99.90
3055;DHT22;1537;52.018;8.542;2024-02-23T17:37:45;7.80;99.90
3055;DHT22;1537;52.018;8.542;2024-02-23T17:41:13;7.80;99.90
3055;DHT22;1537;52.018;8.542;2024-02-23T17:44:42;7.80;99.90
3055;DHT22;1537;52.018;8.542;2024-02-23T17:48:07;7.80;99.90
3055;DHT22;1537;52.018;8.542;2024-02-23T17:51:32;7.80;99.90
3055;DHT22;1537;52.018;8.542;2024-02-23T17:54:58;7.80;99.90
3055;DHT22;1537;52.018;8.542;2024-02-23T17:58:24;7.80;99.90
3055;DHT22;1537;52.018;8.542;2024-02-23T18:01:48;7.80;99.90
3055;DHT22;1537;52.018;8.542;2024-02-23T18:05:12;7.80;99.90
3055;DHT22;1537;52.018;8.542;2024-02-23T18:08:36;7.80;99.90
3055;DHT22;1537;52.018;8.542;2024-02-23T18:12:02;7.80;99.90
3055;DHT22;1537;52.018;8.542;2024-02-23T18:15:30;7.80;99.90
3055;DHT22;1537;52.018;8.542;2024-02-23T18:18:53;7.80;99.90
3055;DHT22;1537;52.018;8.542;2024-02-23T18:22:19;7.70;99.90
3055;DHT22;1537;52.018;8.542;2024-02-23T18:25:45;7.80;99.90
3055;DHT22;1537;52.018;8.542;2024-02-23T18:29:09;7.80;99.90
3055;DHT22;1537;52.018;8.542;2024-02-23T18:32:37;7.70;99.90
3055;DHT22;1537;52.018;8.542;2024-02-23T18:36:05;7.70;99.90
3055;DHT22;1537;52.018;8.542;2024-02-23T18:39:37;7.70;99.90
3055;DHT22;1537;52.018;8.542;2024-02-23T18:43:02;7.70;99.90
3055;DHT22;1537;52.018;8.542;2024-02-23T18:46:27;7.60;99.90
3055;DHT22;1537;52.018;8.542;2024-02-23T18:49:53;7.60;99.90
3055;DHT22;1537;52.018;8.542;2024-02-23T18:53:23;7.60;99.90
3055;DHT22;1537;52.018;8.542;2024-02-23T18:56:47;7.60;99.90
3055;DHT22;1537;52.018;8.542;2024-02-23T19:00:21;7.60;99.90
3055;DHT22;1537;52.018;8.542;2024-02-23T19:03:44;7.60;99.90
3055;DHT22;1537;52.018;8.542;2024-02-23T19:07:10;7.60;99.90
3055;DHT22;1537;52.018;8.542;2024-02-23T19:10:35;7.60;99.90
3055;DHT22;1537;52.018;8.542;2024-02-23T19:13:59;7.50;99.90
3055;DHT22;1537;52.018;8.542;2024-02-23T19:17:23;7.50;99.90
3055;DHT22;1537;52.018;8.542;2024-02-23T19:20:53;7.50;99.90
3055;DHT22;1537;52.018;8.542;2024-02-23T19:24:27;7.50;99.90
3055;DHT22;1537;52.018;8.542;2024-02-23T19:27:53;7.50;99.90
3055;DHT22;1537;52.018;8.542;2024-02-23T19:31:19;7.50;99.90
3055;DHT22;1537;52.018;8.542;2024-02-23T19:34:45;7.50;99.90
3055;DHT22;1537;52.018;8.542;2024-02-23T19:38:11;7.50;99.90
3055;DHT22;1537;52.018;8.542;2024-02-23T19:41:41;7.50;99.90
3055;DHT22;1537;52.018;8.542;2024-02-23T19:45:06;7.50;99.90
3055;DHT22;1537;52.018;8.542;2024-02-23T19:48:30;7.40;99.90
3055;DHT22;1537;52.018;8.542;2024-02-23T19:51:54;7.50;99.90
3055;DHT22;1537;52.018;8.542;2024-02-23T19:55:18;7.50;99.90
3055;DHT22;1537;52.018;8.542;2024-02-23T19:58:44;7.40;99.90
3055;DHT22;1537;52.018;8.542;2024-02-23T20:02:09;7.40;99.90
3055;DHT22;1537;52.018;8.542;2024-02-23T20:05:36;7.40;99.90
3055;DHT22;1537;52.018;8.542;2024-02-23T20:09:00;7.40;99.90
3055;DHT22;1537;52.018;8.542;2024-02-23T20:12:25;7.40;99.90
3055;DHT22;1537;52.018;8.542;2024-02-23T20:15:51;7.40;99.90
3055;DHT22;1537;52.018;8.542;2024-02-23T20:19:15;7.40;99.90
3055;DHT22;1537;52.018;8.542;2024-02-23T20:22:39;7.40;99.90
3055;DHT22;1537;52.018;8.542;2024-02-23T20:26:03;7.40;99.90
3055;DHT22;1537;52.018;8.542;2024-02-23T20:29:29;7.40;99.90
3055;DHT22;1537;52.018;8.542;2024-02-23T20:32:59;7.40;99.90
3055;DHT22;1537;52.018;8.542;2024-02-23T20:36:23;7.40;99.90
3055;DHT22;1537;52.018;8.542;2024-02-23T20:39:48;7.30;99.90
3055;DHT22;1537;52.018;8.542;2024-02-23T20:43:14;7.40;99.90
3055;DHT22;1537;52.018;8.542;2024-02-23T20:46:39;7.30;99.90
3055;DHT22;1537;52.018;8.542;2024-02-23T20:50:05;7.30;99.90
3055;DHT22;1537;52.018;8.542;2024-02-23T20:53:29;7.30;99.90
3055;DHT22;1537;52.018;8.542;2024-02-23T20:56:53;7.30;99.90
3055;DHT22;1537;52.018;8.542;2024-02-23T21:00:20;7.20;99.90
3055;DHT22;1537;52.018;8.542;2024-02-23T21:03:45;7.10;99.90
3055;DHT22;1537;52.018;8.542;2024-02-23T21:07:10;7.10;99.90
3055;DHT22;1537;52.018;8.542;2024-02-23T21:10:34;7.00;99.90
3055;DHT22;1537;52.018;8.542;2024-02-23T21:13:59;7.00;99.90
3055;DHT22;1537;52.018;8.542;2024-02-23T21:17:24;6.80;99.90
3055;DHT22;1537;52.018;8.542;2024-02-23T21:20:48;6.80;99.90
3055;DHT22;1537;52.018;8.542;2024-02-23T21:24:16;6.70;99.90
3055;DHT22;1537;52.018;8.542;2024-02-23T21:27:41;6.60;99.90
3055;DHT22;1537;52.018;8.542;2024-02-23T21:31:05;6.50;99.90
3055;DHT22;1537;52.018;8.542;2024-02-23T21:34:29;6.40;99.90
3055;DHT22;1537;52.018;8.542;2024-02-23T21:37:53;6.40;99.90
3055;DHT22;1537;52.018;8.542;2024-02-23T21:41:18;6.40;99.90
3055;DHT22;1537;52.018;8.542;2024-02-23T21:44:43;6.30;99.90
3055;DHT22;1537;52.018;8.542;2024-02-23T21:48:09;6.30;99.90
3055;DHT22;1537;52.018;8.542;2024-02-23T21:51:33;6.30;99.90
3055;DHT22;1537;52.018;8.542;2024-02-23T21:54:57;6.30;99.90
3055;DHT22;1537;52.018;8.542;2024-02-23T21:58:22;6.30;99.90
3055;DHT22;1537;52.018;8.542;2024-02-23T22:01:47;6.30;99.90
3055;DHT22;1537;52.018;8.542;2024-02-23T22:05:13;6.30;99.90
3055;DHT22;1537;52.018;8.542;2024-02-23T22:08:37;6.30;99.90
3055;DHT22;1537;52.018;8.542;2024-02-23T22:12:01;6.30;99.90
3055;DHT22;1537;52.018;8.542;2024-02-23T22:15:26;6.30;99.90
3055;DHT22;1537;52.018;8.542;2024-02-23T22:18:50;6.30;99.90
3055;DHT22;1537;52.018;8.542;2024-02-23T22:22:14;6.20;99.90
3055;DHT22;1537;52.018;8.542;2024-02-23T22:25:38;6.20;99.90
3055;DHT22;1537;52.018;8.542;2024-02-23T22:29:02;6.10;99.90
3055;DHT22;1537;52.018;8.542;2024-02-23T22:32:27;6.10;99.90
3055;DHT22;1537;52.018;8.542;2024-02-23T22:35:52;6.00;99.90
3055;DHT22;1537;52.018;8.542;2024-02-23T22:39:16;6.00;99.90
3055;DHT22;1537;52.018;8.542;2024-02-23T22:42:41;5.90;99.90
3055;DHT22;1537;52.018;8.542;2024-02-23T22:46:05;5.90;99.90
3055;DHT22;1537;52.018;8.542;2024-02-23T22:49:33;5.90;99.90
3055;DHT22;1537;52.018;8.542;2024-02-23T22:53:00;5.90;99.90
3055;DHT22;1537;52.018;8.542;2024-02-23T22:56:24;5.80;99.90